createdAt,value
2023-02-05T15:55:26.113Z,51.20
2023-02-05T15:58:01.037Z,51.90
2023-02-05T16:00:32.473Z,56.90
2023-02-05T16:03:02.905Z,55.20
2023-02-05T16:05:32.283Z,52.70
2023-02-05T16:08:03.172Z,61.50
2023-02-05T16:10:35.149Z,61.70
2023-02-05T16:13:05.995Z,72.40
2023-02-05T16:15:48.501Z,78.30
2023-02-05T16:18:35.199Z,87.20
2023-02-05T16:21:24.173Z,109.10
2023-02-05T16:24:00.479Z,85.70
2023-02-05T16:26:49.907Z,41.80
2023-02-05T16:29:39.067Z,29.50
2023-02-05T16:32:44.519Z,27.20
2023-02-05T16:35:26.521Z,34.10
2023-02-05T16:37:55.534Z,46.60
2023-02-05T16:40:39.176Z,48.10
2023-02-05T16:43:26.722Z,41.70
2023-02-05T16:46:25.811Z,37.10
2023-02-05T16:48:58.384Z,36.70
2023-02-05T16:51:37.333Z,30.80
2023-02-05T16:54:13.568Z,49.90
2023-02-05T16:57:04.043Z,57.50
2023-02-05T16:59:54.724Z,130.90
2023-02-05T17:02:36.934Z,149.10
2023-02-05T17:05:24.103Z,137.80
2023-02-05T17:07:57.670Z,71.60
2023-02-05T17:10:29.311Z,39.60
2023-02-05T17:13:02.300Z,34.60
2023-02-05T17:15:37.654Z,30.60
2023-02-05T17:18:25.016Z,30.60
2023-02-05T17:21:28.832Z,31.40
2023-02-05T17:24:00.765Z,45.40
2023-02-05T17:26:33.327Z,45.20
2023-02-05T17:29:06.550Z,47.50
2023-02-05T17:34:07.902Z,41.20
2023-02-05T17:36:36.202Z,44.10
2023-02-05T17:39:04.509Z,46.30
2023-02-05T17:41:56.121Z,36.90
2023-02-05T17:44:24.612Z,30.10
2023-02-05T17:46:54.501Z,26.50
2023-02-05T17:49:23.059Z,29.10
2023-02-05T17:51:51.673Z,33.00
2023-02-05T17:54:23.220Z,39.50
2023-02-05T17:56:55.071Z,37.80
2023-02-05T17:59:26.271Z,32.40
2023-02-05T18:01:55.045Z,27.30
2023-02-05T18:04:23.943Z,30.00
2023-02-05T18:06:52.364Z,27.80
2023-02-05T18:09:20.668Z,27.40
2023-02-05T18:11:48.938Z,32.30
2023-02-05T18:14:17.457Z,36.80
2023-02-05T18:16:46.100Z,40.10
2023-02-05T18:19:14.624Z,27.60
2023-02-05T18:21:42.896Z,26.50
2023-02-05T18:24:10.943Z,29.60
2023-02-05T18:26:39.050Z,30.40
2023-02-05T18:29:07.281Z,36.30
2023-02-05T18:31:36.292Z,36.20
2023-02-05T18:34:04.563Z,47.60
2023-02-05T18:36:32.825Z,62.30
2023-02-05T18:39:01.324Z,78.50
2023-02-05T18:41:29.418Z,96.70
2023-02-05T18:43:58.852Z,115.70
2023-02-05T18:46:27.149Z,93.30
2023-02-05T18:48:55.772Z,97.80
2023-02-05T18:51:24.216Z,105.90
2023-02-05T18:53:52.813Z,112.20
2023-02-05T18:56:24.182Z,125.40
2023-02-05T18:58:56.725Z,142.80
2023-02-05T19:01:26.206Z,141.50
2023-02-05T19:03:55.011Z,83.30
2023-02-05T19:06:23.694Z,53.10
2023-02-05T19:08:52.079Z,59.10
2023-02-05T19:11:24.486Z,70.00
2023-02-05T19:13:58.238Z,65.00
2023-02-05T19:16:28.081Z,55.70
2023-02-05T19:18:56.754Z,48.60
2023-02-05T19:21:30.803Z,52.10
2023-02-05T19:24:05.746Z,89.50
2023-02-05T19:26:37.076Z,72.50
2023-02-05T19:29:13.520Z,412.90
2023-02-05T19:31:42.835Z,173.40
2023-02-05T19:34:12.241Z,116.60
2023-02-05T19:36:40.555Z,115.70
2023-02-05T19:39:11.649Z,93.00
2023-02-05T19:41:40.779Z,93.20
2023-02-05T19:44:09.449Z,92.40
2023-02-05T19:46:44.362Z,99.30
2023-02-05T19:49:18.290Z,101.70
2023-02-05T19:51:48.560Z,96.20
2023-02-05T19:54:20.040Z,94.70
2023-02-05T19:56:49.938Z,84.80
2023-02-05T19:59:19.042Z,120.00
2023-02-05T20:01:47.763Z,124.50
2023-02-05T20:04:24.922Z,98.00
2023-02-05T20:06:59.091Z,120.40
2023-02-05T20:09:28.112Z,130.10
2023-02-05T20:11:56.802Z,136.50
2023-02-05T20:14:25.192Z,114.70
2023-02-05T20:16:53.761Z,93.20
2023-02-05T20:19:22.193Z,81.60
2023-02-05T20:21:50.477Z,91.50
2023-02-05T20:24:18.771Z,106.80
2023-02-05T20:26:50.590Z,108.60
2023-02-05T20:29:37.474Z,100.90
2023-02-05T20:32:06.579Z,90.10
2023-02-05T20:34:36.392Z,84.70
2023-02-05T20:37:07.520Z,85.30
2023-02-05T20:39:39.979Z,88.50
2023-02-05T20:42:10.802Z,89.20
2023-02-05T20:44:39.204Z,101.70
2023-02-05T20:47:10.770Z,96.60
2023-02-05T20:49:41.267Z,88.40
2023-02-05T20:52:10.184Z,84.00
2023-02-05T20:54:38.700Z,79.40
2023-02-05T20:57:08.012Z,77.50
2023-02-05T20:59:37.451Z,81.70
2023-02-05T21:02:06.055Z,73.80
2023-02-05T21:04:35.977Z,84.10
2023-02-05T21:07:04.169Z,104.80
2023-02-05T21:09:32.422Z,105.30
2023-02-05T21:12:00.584Z,113.30
2023-02-05T21:14:28.799Z,122.90
2023-02-05T21:16:57.484Z,121.50
2023-02-05T21:19:26.595Z,126.50
2023-02-05T21:21:54.862Z,202.80
2023-02-05T21:24:23.150Z,193.90
2023-02-05T21:26:51.417Z,154.00
2023-02-05T21:29:21.021Z,167.70
2023-02-05T21:31:53.402Z,147.90
2023-02-05T21:34:25.136Z,136.00
2023-02-05T21:36:55.174Z,123.70
2023-02-05T21:39:23.841Z,119.90
2023-02-05T21:41:53.613Z,162.50
2023-02-05T21:44:22.596Z,146.50
2023-02-05T21:46:52.723Z,128.80
2023-02-05T21:49:20.955Z,120.00
2023-02-05T21:51:50.701Z,105.70
2023-02-05T21:54:25.319Z,107.60
2023-02-05T21:56:56.018Z,133.70
2023-02-05T21:59:26.060Z,126.70
2023-02-05T22:01:54.622Z,186.90
2023-02-05T22:04:24.450Z,172.80
2023-02-05T22:06:53.547Z,226.90
2023-02-05T22:09:23.409Z,147.20
2023-02-05T22:11:53.253Z,104.80
2023-02-05T22:14:21.651Z,103.00
2023-02-05T22:16:50.502Z,96.30
2023-02-05T22:19:19.144Z,89.30
2023-02-05T22:21:47.893Z,82.60
2023-02-05T22:24:19.372Z,86.60
2023-02-05T22:26:47.950Z,83.50
2023-02-05T22:29:19.571Z,102.30
2023-02-05T22:31:53.169Z,94.30
2023-02-05T22:34:21.839Z,102.40
2023-02-05T22:36:50.510Z,135.40
2023-02-05T22:39:19.022Z,224.40
2023-02-05T22:41:47.163Z,192.50
2023-02-05T22:44:18.532Z,153.70
2023-02-05T22:46:47.097Z,128.20
2023-02-05T22:49:15.661Z,126.40
2023-02-05T22:51:45.531Z,112.00
2023-02-05T22:54:14.966Z,111.00
2023-02-05T22:56:44.008Z,101.90
2023-02-05T22:59:13.033Z,108.00
2023-02-05T23:01:41.290Z,109.90
2023-02-05T23:04:10.164Z,113.90
2023-02-05T23:06:41.546Z,103.80
2023-02-05T23:09:13.446Z,101.20
2023-02-05T23:11:42.180Z,83.90
2023-02-05T23:14:12.246Z,82.60
2023-02-05T23:16:43.433Z,76.10
2023-02-05T23:19:16.452Z,75.00
2023-02-05T23:21:45.602Z,83.20
2023-02-05T23:24:14.717Z,82.60
2023-02-05T23:26:46.974Z,87.00
2023-02-05T23:29:17.297Z,85.80
2023-02-05T23:31:46.789Z,111.90
2023-02-05T23:34:15.871Z,138.80
2023-02-05T23:36:44.930Z,126.10
2023-02-05T23:39:13.471Z,109.90
2023-02-05T23:41:41.945Z,107.60
2023-02-05T23:44:11.847Z,109.60
2023-02-05T23:46:42.125Z,102.50
2023-02-05T23:49:12.573Z,103.10
2023-02-05T23:51:40.777Z,100.50
2023-02-05T23:54:11.573Z,93.30
2023-02-05T23:56:40.741Z,106.90
2023-02-05T23:59:11.328Z,96.30
